createdAt,value
2023-02-24T00:02:05.065Z,9.33
2023-02-24T00:04:38.553Z,9.34
2023-02-24T00:07:11.639Z,9.32
2023-02-24T00:09:40.053Z,9.15
2023-02-24T00:12:13.065Z,9.19
2023-02-24T00:14:43.188Z,9.22
2023-02-24T00:17:14.643Z,9.28
2023-02-24T00:19:43.061Z,9.24
2023-02-24T00:22:12.897Z,9.25
2023-02-24T00:24:41.141Z,9.18
2023-02-24T00:27:11.268Z,9.13
2023-02-24T00:29:42.041Z,9.14
2023-02-24T00:32:14.888Z,9.08
2023-02-24T00:34:43.268Z,9.03
2023-02-24T00:37:12.148Z,9.11
2023-02-24T00:39:41.621Z,9.06
2023-02-24T00:42:12.273Z,9.11
2023-02-24T00:44:44.746Z,9.04
2023-02-24T00:47:14.179Z,9.03
2023-02-24T00:49:43.749Z,9.05
2023-02-24T00:52:17.108Z,9.09
2023-02-24T00:54:46.416Z,8.97
2023-02-24T00:57:18.236Z,9.07
2023-02-24T00:59:51.432Z,9.04
2023-02-24T01:02:20.524Z,8.93
2023-02-24T01:04:49.977Z,8.91
2023-02-24T01:07:18.053Z,8.94
2023-02-24T01:09:45.718Z,8.91
2023-02-24T01:12:32.591Z,8.88
2023-02-24T01:15:05.106Z,8.88
2023-02-24T01:17:36.393Z,8.89
2023-02-24T01:20:16.784Z,8.86
2023-02-24T01:22:50.803Z,8.80
2023-02-24T01:25:20.638Z,8.78
2023-02-24T01:27:49.111Z,8.77
2023-02-24T01:30:18.341Z,8.82
2023-02-24T01:32:47.443Z,8.72
2023-02-24T01:35:15.877Z,8.75
2023-02-24T01:37:45.516Z,8.84
2023-02-24T01:40:21.043Z,8.77
2023-02-24T01:42:49.672Z,8.81
2023-02-24T01:45:25.178Z,8.91
2023-02-24T01:48:00.225Z,8.93
2023-02-24T01:50:28.762Z,8.89
2023-02-24T01:53:02.221Z,8.77
2023-02-24T01:55:34.931Z,8.79
2023-02-24T01:58:10.142Z,8.76
2023-02-24T02:00:45.572Z,8.72
2023-02-24T02:03:22.425Z,8.72
2023-02-24T02:05:52.202Z,8.75
2023-02-24T02:08:23.703Z,8.74
2023-02-24T02:10:58.914Z,8.74
2023-02-24T02:13:28.166Z,8.68
2023-02-24T02:16:14.557Z,8.76
2023-02-24T02:18:56.406Z,8.83
2023-02-24T02:21:44.175Z,8.74
2023-02-24T02:24:30.670Z,8.76
2023-02-24T02:27:29.434Z,8.81
2023-02-24T02:30:32.125Z,8.79
2023-02-24T02:33:08.791Z,8.73
2023-02-24T02:35:42.841Z,8.57
2023-02-24T02:38:27.871Z,8.54
2023-02-24T02:41:11.246Z,8.54
2023-02-24T02:44:08.813Z,8.44
2023-02-24T02:46:51.425Z,8.28
2023-02-24T02:49:36.010Z,8.19
2023-02-24T02:52:10.528Z,8.23
2023-02-24T02:54:49.839Z,8.21
2023-02-24T02:57:23.901Z,8.06
2023-02-24T03:00:21.629Z,8.18
2023-02-24T03:02:56.216Z,8.15
2023-02-24T03:05:37.327Z,8.01
2023-02-24T03:08:11.580Z,8.10
2023-02-24T03:10:41.904Z,8.07
2023-02-24T03:13:13.407Z,8.18
2023-02-24T03:15:44.869Z,8.28
2023-02-24T03:18:29.176Z,8.32
2023-02-24T03:21:07.973Z,8.33
2023-02-24T03:23:46.135Z,8.34
2023-02-24T03:26:31.084Z,8.41
2023-02-24T03:29:19.275Z,8.43
2023-02-24T03:31:59.529Z,8.46
2023-02-24T03:34:59.599Z,8.55
2023-02-24T03:37:30.074Z,8.57
2023-02-24T03:40:08.377Z,8.62
2023-02-24T03:42:37.060Z,8.58
2023-02-24T03:45:06.832Z,8.56
2023-02-24T03:47:35.839Z,8.54
2023-02-24T03:50:13.422Z,8.40
2023-02-24T03:53:07.780Z,8.21
2023-02-24T03:55:48.185Z,8.10
2023-02-24T03:58:16.452Z,8.22
2023-02-24T04:01:05.676Z,8.29
2023-02-24T04:03:57.855Z,8.27
2023-02-24T04:06:51.508Z,8.31
2023-02-24T04:09:47.439Z,8.34
2023-02-24T04:12:32.271Z,8.32
2023-02-24T04:15:57.356Z,8.38
2023-02-24T04:18:34.917Z,8.35
2023-02-24T04:21:05.541Z,8.37
2023-02-24T04:23:43.761Z,8.36
2023-02-24T04:26:16.541Z,8.33
2023-02-24T04:28:48.615Z,8.31
2023-02-24T04:31:19.549Z,8.33
2023-02-24T04:33:50.520Z,8.35
2023-02-24T04:36:22.040Z,8.31
2023-02-24T04:38:50.287Z,8.22
2023-02-24T04:41:21.701Z,8.29
2023-02-24T04:43:50.969Z,8.22
2023-02-24T04:46:20.323Z,8.28
2023-02-24T04:48:47.902Z,8.31
2023-02-24T04:51:15.776Z,8.39
2023-02-24T04:53:43.923Z,8.51
2023-02-24T04:56:12.191Z,8.53
2023-02-24T04:58:41.228Z,8.60
2023-02-24T05:01:11.136Z,8.78
2023-02-24T05:03:43.348Z,8.88
2023-02-24T05:06:17.210Z,8.88
2023-02-24T05:08:45.704Z,8.92
2023-02-24T05:11:16.202Z,8.80
2023-02-24T05:13:46.196Z,8.78
2023-02-24T05:16:17.531Z,8.80
2023-02-24T05:18:45.633Z,8.80
2023-02-24T05:21:34.924Z,8.75
2023-02-24T05:24:11.317Z,8.62
2023-02-24T05:26:41.832Z,8.64
2023-02-24T05:29:12.565Z,8.57
2023-02-24T05:31:40.218Z,8.56
2023-02-24T05:34:09.080Z,8.45
2023-02-24T05:36:40.343Z,8.51
2023-02-24T05:39:14.626Z,8.51
2023-02-24T05:41:43.829Z,8.66
2023-02-24T05:44:14.251Z,8.74
2023-02-24T05:46:45.378Z,8.79
2023-02-24T05:49:23.545Z,8.91
2023-02-24T05:51:55.257Z,9.09
2023-02-24T05:54:32.179Z,9.16
2023-02-24T05:57:09.414Z,9.22
2023-02-24T05:59:38.712Z,9.27
2023-02-24T06:02:09.494Z,9.31
2023-02-24T06:04:40.015Z,9.38
2023-02-24T06:07:19.215Z,9.52
2023-02-24T06:09:53.604Z,9.56
2023-02-24T06:12:24.163Z,9.66
2023-02-24T06:14:53.172Z,9.67
2023-02-24T06:17:22.949Z,9.63
2023-02-24T06:19:52.815Z,9.54
2023-02-24T06:22:22.976Z,9.61
2023-02-24T06:24:50.653Z,9.72
2023-02-24T06:27:21.566Z,9.84
2023-02-24T06:29:51.173Z,9.63
2023-02-24T06:32:23.683Z,9.57
2023-02-24T06:34:52.060Z,9.76
2023-02-24T06:37:20.463Z,9.79
2023-02-24T06:39:48.486Z,9.77
2023-02-24T06:42:16.605Z,9.83
2023-02-24T06:44:44.090Z,9.80
2023-02-24T06:47:14.388Z,9.66
2023-02-24T06:49:45.016Z,9.87
2023-02-24T06:52:18.588Z,9.97
2023-02-24T06:54:49.755Z,9.92
2023-02-24T06:57:18.082Z,9.66
2023-02-24T06:59:46.326Z,9.22
2023-02-24T07:02:14.171Z,8.95
2023-02-24T07:04:44.149Z,9.10
2023-02-24T07:07:14.608Z,9.29
2023-02-24T07:09:45.429Z,9.46
2023-02-24T07:12:13.674Z,9.30
2023-02-24T07:14:41.742Z,9.26
2023-02-24T07:17:10.361Z,9.11
2023-02-24T07:19:38.156Z,9.35
2023-02-24T07:22:06.173Z,9.38
2023-02-24T07:24:37.327Z,9.64
2023-02-24T07:27:12.644Z,9.91
2023-02-24T07:29:40.591Z,10.14
2023-02-24T07:32:09.643Z,10.19
2023-02-24T07:34:40.676Z,9.90
2023-02-24T07:37:09.745Z,9.61
2023-02-24T07:39:39.499Z,9.73
2023-02-24T07:42:10.107Z,9.86
2023-02-24T07:44:46.907Z,9.95
2023-02-24T07:47:16.274Z,10.04
2023-02-24T07:49:45.404Z,9.97
2023-02-24T07:52:14.340Z,9.94
2023-02-24T07:54:43.274Z,10.00
2023-02-24T07:57:14.207Z,10.16
2023-02-24T07:59:45.130Z,10.23
2023-02-24T08:02:13.924Z,10.67
2023-02-24T08:04:44.627Z,10.74
2023-02-24T08:07:14.632Z,10.69
2023-02-24T08:09:45.870Z,10.92
2023-02-24T08:12:18.497Z,10.85
2023-02-24T08:14:51.609Z,10.77
2023-02-24T08:17:23.100Z,10.91
2023-02-24T08:20:12.636Z,11.18
2023-02-24T08:22:44.293Z,11.36
2023-02-24T08:25:18.750Z,11.55
2023-02-24T08:28:06.734Z,11.55
2023-02-24T08:30:40.294Z,11.56
2023-02-24T08:33:16.133Z,11.64
2023-02-24T08:35:46.763Z,11.53
2023-02-24T08:38:19.899Z,11.62
2023-02-24T08:40:55.173Z,11.65
2023-02-24T08:43:34.531Z,11.84
2023-02-24T08:46:25.618Z,11.92
2023-02-24T08:49:00.876Z,12.32
2023-02-24T08:51:34.875Z,12.35
2023-02-24T08:54:11.009Z,12.36
2023-02-24T08:56:43.708Z,12.38
2023-02-24T08:59:32.105Z,12.28
2023-02-24T09:02:32.355Z,12.25
2023-02-24T09:05:07.960Z,12.41
2023-02-24T09:07:39.014Z,11.63
2023-02-24T09:10:11.963Z,11.68
2023-02-24T09:12:42.504Z,12.14
2023-02-24T09:15:12.021Z,12.00
2023-02-24T09:17:45.602Z,12.54
2023-02-24T09:20:27.760Z,12.34
2023-02-24T09:23:03.338Z,12.52
2023-02-24T09:25:41.682Z,12.27
2023-02-24T09:28:11.085Z,12.26
2023-02-24T09:30:51.445Z,12.17
2023-02-24T09:33:29.058Z,12.20
2023-02-24T09:36:13.082Z,12.10
2023-02-24T09:39:06.964Z,11.98
2023-02-24T09:41:56.318Z,12.29
2023-02-24T09:44:40.431Z,12.82
2023-02-24T09:47:45.332Z,12.80
2023-02-24T09:50:59.120Z,12.49
2023-02-24T09:53:18.877Z,12.22
2023-02-24T09:56:22.248Z,12.66
2023-02-24T09:58:58.617Z,12.70
2023-02-24T10:01:49.679Z,12.20
2023-02-24T10:04:23.033Z,12.42
2023-02-24T10:06:58.969Z,12.84
2023-02-24T10:09:35.161Z,12.87
2023-02-24T10:12:40.215Z,14.18
2023-02-24T10:15:19.155Z,14.42
2023-02-24T10:18:27.322Z,15.23
2023-02-24T10:21:04.132Z,16.17
2023-02-24T10:23:47.491Z,16.63
2023-02-24T10:26:34.843Z,16.18
2023-02-24T10:29:29.517Z,16.87
2023-02-24T10:32:23.956Z,18.07
2023-02-24T10:34:53.740Z,18.03
2023-02-24T10:37:28.986Z,17.54
2023-02-24T10:40:09.783Z,16.99
2023-02-24T10:42:46.011Z,17.10
2023-02-24T10:45:25.212Z,16.42
2023-02-24T10:47:58.426Z,16.40
2023-02-24T10:50:26.200Z,15.93
2023-02-24T10:53:05.867Z,16.27
2023-02-24T10:55:45.538Z,15.96
2023-02-24T10:58:28.339Z,15.58
2023-02-24T11:01:07.075Z,15.79
2023-02-24T11:03:42.573Z,15.36
2023-02-24T11:06:30.929Z,16.26
2023-02-24T11:09:19.454Z,16.04
2023-02-24T11:12:06.867Z,16.26
2023-02-24T11:15:06.047Z,16.99
2023-02-24T11:17:37.009Z,18.85
2023-02-24T11:20:11.034Z,18.70
2023-02-24T11:22:42.123Z,17.82
2023-02-24T11:25:21.004Z,18.75
2023-02-24T11:27:49.278Z,19.45
2023-02-24T11:30:26.688Z,18.92
2023-02-24T11:33:00.518Z,18.84
2023-02-24T11:35:37.795Z,17.96
2023-02-24T11:38:37.566Z,17.53
2023-02-24T11:41:26.185Z,17.24
2023-02-24T11:44:04.176Z,18.04
2023-02-24T11:46:42.081Z,18.07
2023-02-24T11:49:45.667Z,18.34
2023-02-24T11:52:27.403Z,18.12
2023-02-24T11:54:58.394Z,18.62
2023-02-24T11:57:48.281Z,19.47
2023-02-24T12:00:23.555Z,19.51
2023-02-24T12:03:02.197Z,19.78
2023-02-24T12:05:39.200Z,19.94
2023-02-24T12:08:09.834Z,19.94
2023-02-24T12:10:51.013Z,19.22
2023-02-24T12:13:30.355Z,19.10
2023-02-24T12:16:07.997Z,19.13
2023-02-24T12:18:40.997Z,19.67
2023-02-24T12:21:13.224Z,20.16
2023-02-24T12:23:44.391Z,19.87
2023-02-24T12:26:28.467Z,19.39
2023-02-24T12:29:02.529Z,19.75
2023-02-24T12:31:52.219Z,18.56
2023-02-24T12:34:31.963Z,18.97
2023-02-24T12:37:08.025Z,18.75
2023-02-24T12:39:57.140Z,19.18
2023-02-24T12:43:17.524Z,19.31
2023-02-24T12:46:15.120Z,19.00
2023-02-24T12:49:34.952Z,18.77
2023-02-24T12:52:07.929Z,17.20
2023-02-24T12:54:51.108Z,16.50
2023-02-24T12:57:27.677Z,17.40
2023-02-24T12:59:58.088Z,18.26
2023-02-24T13:03:06.592Z,19.55
2023-02-24T13:05:52.220Z,20.09
2023-02-24T13:09:08.573Z,20.21
2023-02-24T13:11:39.258Z,20.44
2023-02-24T13:14:20.642Z,19.97
2023-02-24T13:16:49.086Z,17.98
2023-02-24T13:19:29.567Z,17.86
2023-02-24T13:22:03.605Z,17.99
2023-02-24T13:24:32.896Z,17.77
2023-02-24T13:27:21.179Z,18.54
2023-02-24T13:29:58.093Z,19.32
2023-02-24T13:32:33.175Z,18.64
2023-02-24T13:35:07.825Z,20.59
2023-02-24T13:37:38.737Z,21.52
2023-02-24T13:40:16.631Z,19.92
2023-02-24T13:43:01.257Z,21.59
2023-02-24T13:45:37.437Z,19.04
2023-02-24T13:48:24.105Z,18.18
2023-02-24T13:51:08.238Z,17.93
2023-02-24T13:53:38.488Z,17.38
2023-02-24T13:56:31.286Z,17.39
2023-02-24T13:59:24.260Z,18.08
2023-02-24T14:02:00.115Z,18.61
2023-02-24T14:04:31.236Z,19.60
2023-02-24T14:07:09.058Z,19.69
2023-02-24T14:09:43.299Z,19.45
2023-02-24T14:12:29.885Z,20.37
2023-02-24T14:14:58.050Z,20.26
2023-02-24T14:17:32.130Z,19.87
2023-02-24T14:20:14.358Z,19.32
2023-02-24T14:22:50.483Z,18.94
2023-02-24T14:25:18.260Z,18.36
2023-02-24T14:27:50.390Z,17.58
2023-02-24T14:30:34.196Z,17.80
2023-02-24T14:33:03.488Z,17.71
2023-02-24T14:35:41.938Z,17.75
2023-02-24T14:38:36.061Z,17.65
2023-02-24T14:41:25.435Z,17.32
2023-02-24T14:43:54.395Z,17.09
2023-02-24T14:46:23.809Z,16.11
2023-02-24T14:48:55.133Z,15.81
2023-02-24T14:51:28.259Z,15.93
2023-02-24T14:53:59.977Z,15.91
2023-02-24T14:56:32.887Z,16.26
2023-02-24T14:59:25.161Z,16.43
2023-02-24T15:01:55.823Z,16.21
2023-02-24T15:04:36.910Z,16.47
2023-02-24T15:07:08.464Z,16.14
2023-02-24T15:09:42.494Z,16.15
2023-02-24T15:12:13.140Z,16.10
2023-02-24T15:14:43.591Z,16.03
2023-02-24T15:17:17.246Z,16.01
2023-02-24T15:19:54.413Z,15.78
2023-02-24T15:22:28.994Z,15.88
2023-02-24T15:25:18.989Z,16.05
2023-02-24T15:27:56.289Z,16.31
2023-02-24T15:30:36.653Z,16.64
2023-02-24T15:33:19.582Z,16.62
2023-02-24T15:35:51.995Z,16.45
2023-02-24T15:38:26.134Z,16.30
2023-02-24T15:40:57.391Z,16.36
2023-02-24T15:43:34.420Z,16.31
2023-02-24T15:46:13.711Z,16.12
2023-02-24T15:48:53.298Z,16.00
2023-02-24T15:51:45.432Z,15.91
2023-02-24T15:54:16.861Z,15.92
2023-02-24T15:56:46.650Z,15.92
2023-02-24T15:59:16.455Z,15.68
2023-02-24T16:01:44.671Z,15.86
2023-02-24T16:04:12.331Z,15.93
2023-02-24T16:06:43.961Z,16.01
2023-02-24T16:09:16.809Z,15.85
2023-02-24T16:11:47.308Z,15.53
2023-02-24T16:14:18.570Z,15.58
2023-02-24T16:16:46.576Z,15.44
2023-02-24T16:19:15.864Z,15.41
2023-02-24T16:21:44.380Z,14.98
2023-02-24T16:24:13.041Z,15.17
2023-02-24T16:26:41.866Z,15.37
2023-02-24T16:29:15.289Z,15.16
2023-02-24T16:31:43.461Z,14.82
2023-02-24T16:34:15.000Z,14.77
2023-02-24T16:36:44.062Z,14.96
2023-02-24T16:39:14.857Z,14.72
2023-02-24T16:41:42.960Z,14.63
2023-02-24T16:44:10.943Z,14.78
2023-02-24T16:46:41.293Z,14.59
2023-02-24T16:49:10.690Z,14.59
2023-02-24T16:51:40.552Z,14.57
2023-02-24T16:54:08.802Z,14.47
2023-02-24T16:56:36.609Z,14.45
2023-02-24T16:59:05.149Z,14.42
2023-02-24T17:01:33.928Z,14.29
2023-02-24T17:04:05.263Z,14.15
2023-02-24T17:06:33.860Z,14.24
2023-02-24T17:09:02.821Z,14.24
2023-02-24T17:11:30.929Z,14.28
2023-02-24T17:13:59.893Z,14.35
2023-02-24T17:16:28.618Z,14.22
2023-02-24T17:18:56.859Z,14.11
2023-02-24T17:21:25.251Z,13.89
2023-02-24T17:23:52.853Z,13.96
2023-02-24T17:26:21.477Z,13.92
2023-02-24T17:28:49.869Z,13.98
2023-02-24T17:31:17.586Z,13.95
2023-02-24T17:33:46.049Z,14.05
2023-02-24T17:36:13.701Z,13.83
2023-02-24T17:38:41.216Z,13.80
2023-02-24T17:41:09.204Z,13.89
2023-02-24T17:43:37.025Z,13.96
2023-02-24T17:46:07.150Z,13.97
2023-02-24T17:48:35.422Z,13.84
2023-02-24T17:51:03.258Z,13.84
2023-02-24T17:53:31.851Z,13.85
2023-02-24T17:56:05.505Z,13.94
2023-02-24T17:58:33.558Z,13.92
2023-02-24T18:01:02.620Z,13.90
2023-02-24T18:03:32.629Z,13.88
2023-02-24T18:06:05.393Z,13.80
2023-02-24T18:08:34.877Z,13.86
2023-02-24T18:11:03.957Z,13.96
2023-02-24T18:13:33.437Z,13.82
2023-02-24T18:16:02.184Z,13.90
2023-02-24T18:18:30.478Z,13.77
2023-02-24T18:21:02.943Z,13.80
2023-02-24T18:23:32.233Z,13.89
2023-02-24T18:26:04.953Z,13.90
2023-02-24T18:28:33.447Z,13.88
2023-02-24T18:31:03.276Z,13.91
2023-02-24T18:33:31.105Z,13.96
2023-02-24T18:36:00.710Z,13.77
2023-02-24T18:38:29.592Z,13.70
2023-02-24T18:41:15.696Z,13.75
2023-02-24T18:43:43.527Z,13.64
2023-02-24T18:46:14.073Z,13.80
2023-02-24T18:48:44.558Z,13.87
2023-02-24T18:51:14.931Z,13.71
2023-02-24T18:53:43.441Z,13.76
2023-02-24T18:56:17.757Z,13.59
2023-02-24T18:58:47.025Z,13.72
2023-02-24T19:01:21.183Z,13.63
2023-02-24T19:03:51.111Z,13.65
2023-02-24T19:06:21.547Z,13.74
2023-02-24T19:08:55.288Z,13.66
2023-02-24T19:11:23.151Z,13.76
2023-02-24T19:13:52.048Z,13.71
2023-02-24T19:16:20.461Z,13.63
2023-02-24T19:18:53.489Z,13.58
2023-02-24T19:21:21.844Z,13.59
2023-02-24T19:23:49.414Z,13.62
2023-02-24T19:26:21.281Z,13.56
2023-02-24T19:28:49.122Z,13.65
2023-02-24T19:31:23.667Z,13.58
2023-02-24T19:33:57.362Z,13.52
2023-02-24T19:36:25.569Z,13.58
2023-02-24T19:38:54.346Z,13.56
2023-02-24T19:41:21.934Z,13.70
2023-02-24T19:43:50.360Z,13.55
2023-02-24T19:46:19.079Z,13.58
2023-02-24T19:48:48.530Z,13.56
2023-02-24T19:51:23.029Z,13.54
2023-02-24T19:53:55.999Z,13.63
2023-02-24T19:56:29.401Z,13.51
2023-02-24T19:58:58.784Z,13.44
2023-02-24T20:01:27.960Z,13.52
2023-02-24T20:03:57.705Z,13.56
2023-02-24T20:06:31.241Z,13.68
2023-02-24T20:09:00.475Z,13.66
2023-02-24T20:11:29.892Z,13.69
2023-02-24T20:13:57.846Z,13.53
2023-02-24T20:16:27.284Z,13.78
2023-02-24T20:18:55.461Z,13.80
2023-02-24T20:21:23.874Z,13.77
2023-02-24T20:23:51.987Z,13.67
2023-02-24T20:26:21.185Z,13.59
2023-02-24T20:28:49.826Z,13.54
2023-02-24T20:31:19.597Z,13.54
2023-02-24T20:33:50.957Z,13.51
2023-02-24T20:36:23.812Z,13.52
2023-02-24T20:38:52.237Z,13.57
2023-02-24T20:41:21.909Z,13.60
2023-02-24T20:43:50.949Z,13.51
2023-02-24T20:46:29.398Z,13.45
2023-02-24T20:49:02.217Z,13.51
2023-02-24T20:51:31.733Z,13.31
2023-02-24T20:53:59.940Z,13.33
2023-02-24T20:56:33.106Z,13.39
2023-02-24T20:59:04.228Z,13.18
2023-02-24T21:01:33.638Z,13.21
2023-02-24T21:04:02.099Z,13.21
2023-02-24T21:06:30.863Z,13.03
2023-02-24T21:08:58.987Z,12.98
2023-02-24T21:11:29.797Z,13.10
2023-02-24T21:13:58.640Z,13.19
2023-02-24T21:16:28.257Z,13.14
2023-02-24T21:18:58.022Z,13.12
2023-02-24T21:21:26.648Z,13.14
2023-02-24T21:23:55.229Z,13.20
2023-02-24T21:26:26.718Z,13.18
2023-02-24T21:28:57.607Z,13.08
2023-02-24T21:31:27.414Z,13.10
2023-02-24T21:33:56.189Z,12.98
2023-02-24T21:36:25.860Z,13.06
2023-02-24T21:38:54.722Z,13.01
2023-02-24T21:41:23.886Z,12.99
2023-02-24T21:43:54.916Z,12.99
2023-02-24T21:46:28.259Z,12.89
2023-02-24T21:49:00.357Z,13.01
2023-02-24T21:51:28.311Z,12.99
2023-02-24T21:53:56.960Z,12.95
2023-02-24T21:56:28.640Z,13.02
2023-02-24T21:59:02.303Z,12.99
2023-02-24T22:01:39.790Z,12.81
2023-02-24T22:04:10.722Z,12.89
2023-02-24T22:06:40.757Z,12.92
2023-02-24T22:09:10.164Z,12.93
2023-02-24T22:11:41.038Z,12.86
2023-02-24T22:14:12.028Z,12.84
2023-02-24T22:16:40.819Z,12.84
2023-02-24T22:19:08.819Z,12.47
2023-02-24T22:21:39.238Z,12.54
2023-02-24T22:24:07.128Z,12.52
2023-02-24T22:26:34.729Z,12.56
2023-02-24T22:29:03.884Z,12.71
2023-02-24T22:31:33.203Z,12.61
2023-02-24T22:34:01.876Z,12.54
2023-02-24T22:36:33.570Z,12.61
2023-02-24T22:39:02.933Z,12.65
2023-02-24T22:41:33.262Z,12.75
2023-02-24T22:44:03.647Z,12.63
2023-02-24T22:46:37.472Z,12.41
2023-02-24T22:49:05.980Z,12.52
2023-02-24T22:51:34.119Z,12.52
2023-02-24T22:54:02.636Z,12.55
2023-02-24T22:56:31.249Z,12.58
2023-02-24T22:59:00.782Z,12.50
2023-02-24T23:01:30.950Z,12.40
2023-02-24T23:04:02.692Z,12.48
2023-02-24T23:06:31.480Z,12.37
2023-02-24T23:09:01.214Z,12.29
2023-02-24T23:11:32.426Z,12.13
2023-02-24T23:14:04.186Z,11.89
2023-02-24T23:16:34.565Z,12.01
2023-02-24T23:19:12.986Z,12.01
2023-02-24T23:21:43.255Z,12.00
2023-02-24T23:24:14.289Z,11.96
2023-02-24T23:26:45.894Z,12.06
2023-02-24T23:29:17.660Z,11.98
2023-02-24T23:31:46.594Z,12.08
2023-02-24T23:34:15.968Z,12.19
2023-02-24T23:36:46.482Z,12.18
2023-02-24T23:39:16.651Z,11.95
2023-02-24T23:41:44.392Z,11.98
2023-02-24T23:44:12.615Z,11.75
2023-02-24T23:46:41.848Z,11.69
2023-02-24T23:49:09.998Z,11.84
2023-02-24T23:51:48.105Z,11.96
2023-02-24T23:54:18.279Z,11.93
2023-02-24T23:56:46.902Z,11.90
2023-02-24T23:59:15.134Z,11.78
